sensor_id;sensor_type;location;lat;lon;timestamp;pressure;altitude;pressure_sealevel;temperature;humidity
60345;BME280;46188;52.324;8.032;2024-02-26T00:00:02;99048.25;;;3.01;100.00
60345;BME280;46188;52.324;8.032;2024-02-26T00:02:28;99040.38;;;2.98;100.00
60345;BME280;46188;52.324;8.032;2024-02-26T00:04:53;99042.06;;;2.95;100.00
60345;BME280;46188;52.324;8.032;2024-02-26T00:07:18;99037.72;;;2.93;100.00
60345;BME280;46188;52.324;8.032;2024-02-26T00:09:44;99045.47;;;2.91;100.00
60345;BME280;46188;52.324;8.032;2024-02-26T00:12:09;99038.47;;;2.89;100.00
60345;BME280;46188;52.324;8.032;2024-02-26T00:14:34;99037.59;;;2.87;100.00
60345;BME280;46188;52.324;8.032;2024-02-26T00:17:00;99027.97;;;2.84;100.00
60345;BME280;46188;52.324;8.032;2024-02-26T00:19:25;99028.84;;;2.83;100.00
60345;BME280;46188;52.324;8.032;2024-02-26T00:21:50;99022.72;;;2.81;100.00
60345;BME280;46188;52.324;8.032;2024-02-26T00:24:15;99029.63;;;2.79;100.00
60345;BME280;46188;52.324;8.032;2024-02-26T00:26:41;99035.66;;;2.76;100.00
60345;BME280;46188;52.324;8.032;2024-02-26T00:29:06;99031.25;;;2.74;100.00
60345;BME280;46188;52.324;8.032;2024-02-26T00:31:31;99028.59;;;2.71;100.00
60345;BME280;46188;52.324;8.032;2024-02-26T00:33:56;99030.34;;;2.70;100.00
60345;BME280;46188;52.324;8.032;2024-02-26T00:36:22;99031.16;;;2.69;100.00
60345;BME280;46188;52.324;8.032;2024-02-26T00:38:47;99027.66;;;2.67;100.00
60345;BME280;46188;52.324;8.032;2024-02-26T00:41:16;99028.50;;;2.66;100.00
60345;BME280;46188;52.324;8.032;2024-02-26T00:43:41;99036.28;;;2.65;100.00
60345;BME280;46188;52.324;8.032;2024-02-26T00:46:07;99049.28;;;2.63;100.00
60345;BME280;46188;52.324;8.032;2024-02-26T00:48:33;99045.72;;;2.59;100.00
60345;BME280;46188;52.324;8.032;2024-02-26T00:50:58;99050.88;;;2.58;100.00
60345;BME280;46188;52.324;8.032;2024-02-26T00:53:23;99054.34;;;2.57;100.00
60345;BME280;46188;52.324;8.032;2024-02-26T00:55:50;99054.31;;;2.55;100.00
60345;BME280;46188;52.324;8.032;2024-02-26T00:58:15;99048.22;;;2.53;100.00
60345;BME280;46188;52.324;8.032;2024-02-26T01:00:40;99057.72;;;2.53;100.00
60345;BME280;46188;52.324;8.032;2024-02-26T01:03:06;99056.00;;;2.52;100.00
60345;BME280;46188;52.324;8.032;2024-02-26T01:05:31;99056.00;;;2.52;100.00
60345;BME280;46188;52.324;8.032;2024-02-26T01:07:56;99054.19;;;2.49;100.00
60345;BME280;46188;52.324;8.032;2024-02-26T01:10:21;99049.81;;;2.48;100.00
60345;BME280;46188;52.324;8.032;2024-02-26T01:12:47;99057.63;;;2.47;100.00
60345;BME280;46188;52.324;8.032;2024-02-26T01:15:13;99068.84;;;2.46;100.00
60345;BME280;46188;52.324;8.032;2024-02-26T01:17:38;99071.44;;;2.44;100.00
60345;BME280;46188;52.324;8.032;2024-02-26T01:20:04;99066.19;;;2.43;100.00
60345;BME280;46188;52.324;8.032;2024-02-26T01:22:30;99074.00;;;2.43;100.00
60345;BME280;46188;52.324;8.032;2024-02-26T01:24:55;99060.13;;;2.42;100.00
60345;BME280;46188;52.324;8.032;2024-02-26T01:27:21;99060.06;;;2.39;100.00
60345;BME280;46188;52.324;8.032;2024-02-26T01:29:51;99060.06;;;2.39;100.00
60345;BME280;46188;52.324;8.032;2024-02-26T01:32:17;99058.28;;;2.38;100.00
60345;BME280;46188;52.324;8.032;2024-02-26T01:34:42;99063.50;;;2.38;100.00
60345;BME280;46188;52.324;8.032;2024-02-26T01:37:07;99059.97;;;2.36;100.00
60345;BME280;46188;52.324;8.032;2024-02-26T01:39:33;99065.16;;;2.34;100.00
60345;BME280;46188;52.324;8.032;2024-02-26T01:41:58;99056.47;;;2.34;100.00
60345;BME280;46188;52.324;8.032;2024-02-26T01:44:26;99052.97;;;2.33;100.00
60345;BME280;46188;52.324;8.032;2024-02-26T01:46:51;99046.03;;;2.32;100.00
60345;BME280;46188;52.324;8.032;2024-02-26T01:49:18;99052.06;;;2.31;100.00
60345;BME280;46188;52.324;8.032;2024-02-26T01:51:44;99041.69;;;2.31;100.00
60345;BME280;46188;52.324;8.032;2024-02-26T01:54:09;99046.00;;;2.31;100.00
60345;BME280;46188;52.324;8.032;2024-02-26T01:56:36;99039.03;;;2.30;100.00
60345;BME280;46188;52.324;8.032;2024-02-26T01:59:03;99031.25;;;2.30;100.00
60345;BME280;46188;52.324;8.032;2024-02-26T02:01:29;99032.97;;;2.29;100.00
60345;BME280;46188;52.324;8.032;2024-02-26T02:03:58;99033.84;;;2.30;100.00
60345;BME280;46188;52.324;8.032;2024-02-26T02:06:24;99032.19;;;2.32;100.00
60345;BME280;46188;52.324;8.032;2024-02-26T02:08:49;99035.59;;;2.31;100.00
60345;BME280;46188;52.324;8.032;2024-02-26T02:11:15;99028.66;;;2.31;100.00
60345;BME280;46188;52.324;8.032;2024-02-26T02:13:40;99034.78;;;2.32;100.00
60345;BME280;46188;52.324;8.032;2024-02-26T02:16:06;99033.03;;;2.32;100.00
60345;BME280;46188;52.324;8.032;2024-02-26T02:18:31;99034.78;;;2.33;100.00
60345;BME280;46188;52.324;8.032;2024-02-26T02:20:57;99035.69;;;2.34;100.00
60345;BME280;46188;52.324;8.032;2024-02-26T02:23:25;99033.13;;;2.35;100.00
60345;BME280;46188;52.324;8.032;2024-02-26T02:25:50;99037.44;;;2.36;100.00
60345;BME280;46188;52.324;8.032;2024-02-26T02:28:16;99028.78;;;2.36;100.00
60345;BME280;46188;52.324;8.032;2024-02-26T02:30:41;99042.69;;;2.38;100.00
60345;BME280;46188;52.324;8.032;2024-02-26T02:33:06;99035.78;;;2.38;100.00
60345;BME280;46188;52.324;8.032;2024-02-26T02:35:32;99042.72;;;2.39;100.00
60345;BME280;46188;52.324;8.032;2024-02-26T02:37:57;99041.88;;;2.40;100.00
60345;BME280;46188;52.324;8.032;2024-02-26T02:40:23;99041.00;;;2.42;100.00
60345;BME280;46188;52.324;8.032;2024-02-26T02:42:48;99053.19;;;2.43;100.00
60345;BME280;46188;52.324;8.032;2024-02-26T02:45:14;99056.69;;;2.45;100.00
60345;BME280;46188;52.324;8.032;2024-02-26T02:47:39;99054.13;;;2.46;100.00
60345;BME280;46188;52.324;8.032;2024-02-26T02:50:05;99058.50;;;2.47;100.00
60345;BME280;46188;52.324;8.032;2024-02-26T02:52:30;99062.00;;;2.49;100.00
60345;BME280;46188;52.324;8.032;2024-02-26T02:54:56;99057.66;;;2.50;100.00
60345;BME280;46188;52.324;8.032;2024-02-26T02:57:21;99059.47;;;2.52;100.00
60345;BME280;46188;52.324;8.032;2024-02-26T02:59:47;99052.56;;;2.54;100.00
60345;BME280;46188;52.324;8.032;2024-02-26T03:02:12;99053.47;;;2.56;100.00
60345;BME280;46188;52.324;8.032;2024-02-26T03:04:37;99056.09;;;2.58;100.00
60345;BME280;46188;52.324;8.032;2024-02-26T03:07:03;99067.44;;;2.60;100.00
60345;BME280;46188;52.324;8.032;2024-02-26T03:09:28;99064.84;;;2.62;100.00
60345;BME280;46188;52.324;8.032;2024-02-26T03:11:53;99062.28;;;2.65;100.00
60345;BME280;46188;52.324;8.032;2024-02-26T03:14:18;99057.09;;;2.65;100.00
60345;BME280;46188;52.324;8.032;2024-02-26T03:16:44;99058.84;;;2.66;100.00
60345;BME280;46188;52.324;8.032;2024-02-26T03:19:09;99071.94;;;2.69;100.00
60345;BME280;46188;52.324;8.032;2024-02-26T03:21:34;99067.59;;;2.69;100.00
60345;BME280;46188;52.324;8.032;2024-02-26T03:24:00;99068.50;;;2.70;100.00
60345;BME280;46188;52.324;8.032;2024-02-26T03:26:25;99072.88;;;2.72;100.00
60345;BME280;46188;52.324;8.032;2024-02-26T03:28:50;99074.59;;;2.72;100.00
60345;BME280;46188;52.324;8.032;2024-02-26T03:31:15;99072.03;;;2.73;100.00
60345;BME280;46188;52.324;8.032;2024-02-26T03:33:41;99074.66;;;2.75;100.00
60345;BME280;46188;52.324;8.032;2024-02-26T03:36:06;99078.16;;;2.77;100.00
60345;BME280;46188;52.324;8.032;2024-02-26T03:38:32;99081.66;;;2.79;100.00
60345;BME280;46188;52.324;8.032;2024-02-26T03:40:58;99082.53;;;2.80;100.00
60345;BME280;46188;52.324;8.032;2024-02-26T03:43:23;99083.47;;;2.82;100.00
60345;BME280;46188;52.324;8.032;2024-02-26T03:45:48;99077.41;;;2.83;100.00
60345;BME280;46188;52.324;8.032;2024-02-26T03:48:13;99091.34;;;2.85;100.00
60345;BME280;46188;52.324;8.032;2024-02-26T03:50:39;99090.47;;;2.86;100.00
60345;BME280;46188;52.324;8.032;2024-02-26T03:53:04;99094.84;;;2.87;100.00
60345;BME280;46188;52.324;8.032;2024-02-26T03:55:29;99097.47;;;2.88;100.00
60345;BME280;46188;52.324;8.032;2024-02-26T03:57:55;99097.50;;;2.90;100.00
60345;BME280;46188;52.324;8.032;2024-02-26T04:00:20;99094.91;;;2.90;100.00
60345;BME280;46188;52.324;8.032;2024-02-26T04:02:49;99097.53;;;2.91;100.00
60345;BME280;46188;52.324;8.032;2024-02-26T04:05:14;99110.59;;;2.93;100.00
60345;BME280;46188;52.324;8.032;2024-02-26T04:07:40;99102.75;;;2.91;100.00
60345;BME280;46188;52.324;8.032;2024-02-26T04:10:12;99110.59;;;2.94;100.00
60345;BME280;46188;52.324;8.032;2024-02-26T04:12:39;99099.34;;;2.95;100.00
60345;BME280;46188;52.324;8.032;2024-02-26T04:15:06;99110.63;;;2.96;100.00
60345;BME280;46188;52.324;8.032;2024-02-26T04:17:31;99107.19;;;2.97;100.00
60345;BME280;46188;52.324;8.032;2024-02-26T04:19:56;99108.94;;;2.98;100.00
60345;BME280;46188;52.324;8.032;2024-02-26T04:22:22;99115.03;;;2.99;100.00
60345;BME280;46188;52.324;8.032;2024-02-26T04:24:47;99115.91;;;2.99;100.00
60345;BME280;46188;52.324;8.032;2024-02-26T04:27:12;99114.19;;;3.00;100.00
60345;BME280;46188;52.324;8.032;2024-02-26T04:29:37;99118.53;;;3.01;100.00
60345;BME280;46188;52.324;8.032;2024-02-26T04:32:03;99119.41;;;3.01;100.00
60345;BME280;46188;52.324;8.032;2024-02-26T04:34:28;99121.16;;;3.02;100.00
60345;BME280;46188;52.324;8.032;2024-02-26T04:36:54;99123.81;;;3.04;100.00
60345;BME280;46188;52.324;8.032;2024-02-26T04:39:19;99126.44;;;3.05;100.00
60345;BME280;46188;52.324;8.032;2024-02-26T04:41:44;99128.22;;;3.06;100.00
60345;BME280;46188;52.324;8.032;2024-02-26T04:44:09;99129.06;;;3.07;100.00
60345;BME280;46188;52.324;8.032;2024-02-26T04:46:35;99122.16;;;3.09;100.00
60345;BME280;46188;52.324;8.032;2024-02-26T04:49:00;99136.06;;;3.11;100.00
60345;BME280;46188;52.324;8.032;2024-02-26T04:51:25;99137.84;;;3.12;100.00
60345;BME280;46188;52.324;8.032;2024-02-26T04:53:51;99140.47;;;3.13;100.00
60345;BME280;46188;52.324;8.032;2024-02-26T04:56:19;99130.94;;;3.14;100.00
60345;BME280;46188;52.324;8.032;2024-02-26T04:58:44;99132.69;;;3.15;100.00
60345;BME280;46188;52.324;8.032;2024-02-26T05:01:10;99133.56;;;3.16;100.00
60345;BME280;46188;52.324;8.032;2024-02-26T05:03:35;99137.09;;;3.19;100.00
60345;BME280;46188;52.324;8.032;2024-02-26T05:06:01;99137.13;;;3.21;100.00
60345;BME280;46188;52.324;8.032;2024-02-26T05:08:26;99136.31;;;3.22;100.00
60345;BME280;46188;52.324;8.032;2024-02-26T05:10:51;99142.41;;;3.24;100.00
60345;BME280;46188;52.324;8.032;2024-02-26T05:13:16;99145.03;;;3.25;100.00
60345;BME280;46188;52.324;8.032;2024-02-26T05:15:43;99140.69;;;3.26;100.00
60345;BME280;46188;52.324;8.032;2024-02-26T05:18:08;99140.72;;;3.27;100.00
60345;BME280;46188;52.324;8.032;2024-02-26T05:20:33;99139.03;;;3.28;100.00
60345;BME280;46188;52.324;8.032;2024-02-26T05:23:01;99137.25;;;3.27;100.00
60345;BME280;46188;52.324;8.032;2024-02-26T05:25:26;99145.09;;;3.28;100.00
60345;BME280;46188;52.324;8.032;2024-02-26T05:27:51;99146.88;;;3.29;100.00
60345;BME280;46188;52.324;8.032;2024-02-26T05:30:17;99143.41;;;3.30;100.00
60345;BME280;46188;52.324;8.032;2024-02-26T05:32:42;99149.50;;;3.32;100.00
60345;BME280;46188;52.324;8.032;2024-02-26T05:35:07;99151.25;;;3.32;100.00
60345;BME280;46188;52.324;8.032;2024-02-26T05:37:32;99152.13;;;3.32;100.00
60345;BME280;46188;52.324;8.032;2024-02-26T05:39:59;99150.38;;;3.31;100.00
60345;BME280;46188;52.324;8.032;2024-02-26T05:42:24;99158.19;;;3.31;100.00
60345;BME280;46188;52.324;8.032;2024-02-26T05:44:49;99159.91;;;3.31;100.00
60345;BME280;46188;52.324;8.032;2024-02-26T05:47:14;99164.19;;;3.29;100.00
60345;BME280;46188;52.324;8.032;2024-02-26T05:49:40;99165.94;;;3.28;100.00
60345;BME280;46188;52.324;8.032;2024-02-26T05:52:06;99167.66;;;3.26;100.00
60345;BME280;46188;52.324;8.032;2024-02-26T05:54:31;99174.59;;;3.27;100.00
60345;BME280;46188;52.324;8.032;2024-02-26T05:56:57;99176.31;;;3.27;100.00
60345;BME280;46188;52.324;8.032;2024-02-26T05:59:22;99178.94;;;3.27;100.00
60345;BME280;46188;52.324;8.032;2024-02-26T06:01:47;99185.91;;;3.28;100.00
60345;BME280;46188;52.324;8.032;2024-02-26T06:04:13;99193.72;;;3.28;100.00
60345;BME280;46188;52.324;8.032;2024-02-26T06:06:38;99197.19;;;3.28;100.00
60345;BME280;46188;52.324;8.032;2024-02-26T06:09:03;99202.47;;;3.31;100.00
60345;BME280;46188;52.324;8.032;2024-02-26T06:11:30;99207.69;;;3.31;100.00
60345;BME280;46188;52.324;8.032;2024-02-26T06:13:55;99200.72;;;3.32;100.00
60345;BME280;46188;52.324;8.032;2024-02-26T06:16:21;99212.03;;;3.32;100.00
60345;BME280;46188;52.324;8.032;2024-02-26T06:18:46;99206.81;;;3.32;100.00
60345;BME280;46188;52.324;8.032;2024-02-26T06:21:11;99213.78;;;3.33;100.00
60345;BME280;46188;52.324;8.032;2024-02-26T06:23:38;99211.19;;;3.33;100.00
60345;BME280;46188;52.324;8.032;2024-02-26T06:26:03;99218.16;;;3.35;100.00
60345;BME280;46188;52.324;8.032;2024-02-26T06:28:29;99218.16;;;3.35;100.00
60345;BME280;46188;52.324;8.032;2024-02-26T06:30:55;99226.84;;;3.35;100.00
60345;BME280;46188;52.324;8.032;2024-02-26T06:33:20;99226.84;;;3.35;100.00
60345;BME280;46188;52.324;8.032;2024-02-26T06:35:47;99226.84;;;3.35;100.00
60345;BME280;46188;52.324;8.032;2024-02-26T06:38:12;99232.91;;;3.36;100.00
60345;BME280;46188;52.324;8.032;2024-02-26T06:40:39;99224.28;;;3.37;100.00
60345;BME280;46188;52.324;8.032;2024-02-26T06:43:04;99235.56;;;3.37;100.00
60345;BME280;46188;52.324;8.032;2024-02-26T06:45:29;99236.47;;;3.39;100.00
60345;BME280;46188;52.324;8.032;2024-02-26T06:47:54;99236.50;;;3.41;100.00
60345;BME280;46188;52.324;8.032;2024-02-26T06:50:21;99227.81;;;3.40;100.00
60345;BME280;46188;52.324;8.032;2024-02-26T06:52:46;99240.88;;;3.42;100.00
60345;BME280;46188;52.324;8.032;2024-02-26T06:55:12;99229.63;;;3.43;100.00
60345;BME280;46188;52.324;8.032;2024-02-26T06:57:38;99230.50;;;3.45;100.00
60345;BME280;46188;52.324;8.032;2024-02-26T07:00:04;99234.03;;;3.47;100.00
60345;BME280;46188;52.324;8.032;2024-02-26T07:02:29;99232.31;;;3.49;100.00
60345;BME280;46188;52.324;8.032;2024-02-26T07:04:54;99233.22;;;3.49;100.00
60345;BME280;46188;52.324;8.032;2024-02-26T07:07:21;99237.56;;;3.50;100.00
60345;BME280;46188;52.324;8.032;2024-02-26T07:09:47;99242.81;;;3.52;100.00
60345;BME280;46188;52.324;8.032;2024-02-26T07:12:13;99245.44;;;3.54;100.00
60345;BME280;46188;52.324;8.032;2024-02-26T07:14:39;99244.59;;;3.55;100.00
60345;BME280;46188;52.324;8.032;2024-02-26T07:17:04;99248.91;;;3.54;100.00
60345;BME280;46188;52.324;8.032;2024-02-26T07:19:29;99251.56;;;3.57;100.00
60345;BME280;46188;52.324;8.032;2024-02-26T07:21:55;99251.56;;;3.57;100.00
60345;BME280;46188;52.324;8.032;2024-02-26T07:24:20;99254.22;;;3.59;100.00
60345;BME280;46188;52.324;8.032;2024-02-26T07:26:46;99255.13;;;3.59;100.00
60345;BME280;46188;52.324;8.032;2024-02-26T07:29:11;99243.78;;;3.59;100.00
60345;BME280;46188;52.324;8.032;2024-02-26T07:31:36;99251.66;;;3.60;100.00
60345;BME280;46188;52.324;8.032;2024-02-26T07:34:01;99249.06;;;3.62;100.00
60345;BME280;46188;52.324;8.032;2024-02-26T07:36:27;99250.84;;;3.63;100.00
60345;BME280;46188;52.324;8.032;2024-02-26T07:38:52;99254.31;;;3.63;100.00
60345;BME280;46188;52.324;8.032;2024-02-26T07:41:19;99253.47;;;3.64;100.00
60345;BME280;46188;52.324;8.032;2024-02-26T07:43:44;99256.13;;;3.66;100.00
60345;BME280;46188;52.324;8.032;2024-02-26T07:46:13;99257.84;;;3.67;100.00
60345;BME280;46188;52.324;8.032;2024-02-26T07:48:38;99255.28;;;3.68;100.00
60345;BME280;46188;52.324;8.032;2024-02-26T07:51:04;99256.19;;;3.70;100.00
60345;BME280;46188;52.324;8.032;2024-02-26T07:53:29;99252.72;;;3.72;100.00
60345;BME280;46188;52.324;8.032;2024-02-26T07:55:55;99248.41;;;3.74;100.00
60345;BME280;46188;52.324;8.032;2024-02-26T07:58:22;99258.88;;;3.75;100.00
60345;BME280;46188;52.324;8.032;2024-02-26T08:00:48;99259.78;;;3.77;100.00
60345;BME280;46188;52.324;8.032;2024-02-26T08:03:14;99256.34;;;3.78;100.00
60345;BME280;46188;52.324;8.032;2024-02-26T08:05:40;99264.19;;;3.80;100.00
60345;BME280;46188;52.324;8.032;2024-02-26T08:08:07;99262.47;;;3.82;100.00
60345;BME280;46188;52.324;8.032;2024-02-26T08:10:33;99257.31;;;3.85;100.00
60345;BME280;46188;52.324;8.032;2024-02-26T08:12:58;99262.53;;;3.85;100.00
60345;BME280;46188;52.324;8.032;2024-02-26T08:15:30;99255.63;;;3.87;100.00
60345;BME280;46188;52.324;8.032;2024-02-26T08:17:56;99263.44;;;3.87;100.00
60345;BME280;46188;52.324;8.032;2024-02-26T08:20:21;99262.63;;;3.90;100.00
60345;BME280;46188;52.324;8.032;2024-02-26T08:22:46;99262.66;;;3.91;100.00
60345;BME280;46188;52.324;8.032;2024-02-26T08:25:11;99270.47;;;3.91;100.00
60345;BME280;46188;52.324;8.032;2024-02-26T08:27:36;99281.84;;;3.95;100.00
60345;BME280;46188;52.324;8.032;2024-02-26T08:30:02;99277.50;;;3.95;100.00
60345;BME280;46188;52.324;8.032;2024-02-26T08:32:27;99275.81;;;3.97;100.00
60345;BME280;46188;52.324;8.032;2024-02-26T08:34:52;99283.63;;;3.99;100.00
60345;BME280;46188;52.324;8.032;2024-02-26T08:37:18;99280.22;;;4.01;100.00
60345;BME280;46188;52.324;8.032;2024-02-26T08:39:43;99290.69;;;4.03;100.00
60345;BME280;46188;52.324;8.032;2024-02-26T08:42:08;99292.47;;;4.05;100.00
60345;BME280;46188;52.324;8.032;2024-02-26T08:44:33;99299.44;;;4.06;100.00
60345;BME280;46188;52.324;8.032;2024-02-26T08:46:59;99297.69;;;4.07;100.00
60345;BME280;46188;52.324;8.032;2024-02-26T08:49:24;99300.34;;;4.09;100.00
60345;BME280;46188;52.324;8.032;2024-02-26T08:51:49;99306.47;;;4.11;100.00
60345;BME280;46188;52.324;8.032;2024-02-26T08:54:14;99309.97;;;4.13;100.00
60345;BME280;46188;52.324;8.032;2024-02-26T08:56:40;99307.41;;;4.14;100.00
60345;BME280;46188;52.324;8.032;2024-02-26T08:59:05;99317.00;;;4.17;100.00
60345;BME280;46188;52.324;8.032;2024-02-26T09:01:33;99318.78;;;4.19;100.00
60345;BME280;46188;52.324;8.032;2024-02-26T09:03:59;99323.19;;;4.20;100.00
60345;BME280;46188;52.324;8.032;2024-02-26T09:06:24;99313.63;;;4.22;100.00
60345;BME280;46188;52.324;8.032;2024-02-26T09:08:49;99324.97;;;4.24;100.00
60345;BME280;46188;52.324;8.032;2024-02-26T09:11:14;99325.03;;;4.28;100.00
60345;BME280;46188;52.324;8.032;2024-02-26T09:13:40;99334.63;;;4.30;100.00
60345;BME280;46188;52.324;8.032;2024-02-26T09:16:06;99329.47;;;4.33;100.00
60345;BME280;46188;52.324;8.032;2024-02-26T09:18:31;99334.72;;;4.35;100.00
60345;BME280;46188;52.324;8.032;2024-02-26T09:20:56;99338.22;;;4.35;100.00
60345;BME280;46188;52.324;8.032;2024-02-26T09:23:24;99343.44;;;4.37;100.00
60345;BME280;46188;52.324;8.032;2024-02-26T09:25:50;99343.50;;;4.40;100.00
60345;BME280;46188;52.324;8.032;2024-02-26T09:28:15;99343.56;;;4.43;100.00
60345;BME280;46188;52.324;8.032;2024-02-26T09:30:43;99350.56;;;4.46;100.00
60345;BME280;46188;52.324;8.032;2024-02-26T09:33:08;99360.19;;;4.50;100.00
60345;BME280;46188;52.324;8.032;2024-02-26T09:35:33;99355.88;;;4.52;100.00
60345;BME280;46188;52.324;8.032;2024-02-26T09:37:59;99358.53;;;4.55;100.00
60345;BME280;46188;52.324;8.032;2024-02-26T09:40:24;99362.09;;;4.57;100.00
60345;BME280;46188;52.324;8.032;2024-02-26T09:42:52;99356.03;;;4.59;100.00
60345;BME280;46188;52.324;8.032;2024-02-26T09:45:21;99364.75;;;4.61;100.00
60345;BME280;46188;52.324;8.032;2024-02-26T09:47:48;99366.53;;;4.64;100.00
60345;BME280;46188;52.324;8.032;2024-02-26T09:50:14;99362.25;;;4.68;100.00
60345;BME280;46188;52.324;8.032;2024-02-26T09:52:42;99367.53;;;4.71;100.00
60345;BME280;46188;52.324;8.032;2024-02-26T09:55:08;99368.44;;;4.73;100.00
60345;BME280;46188;52.324;8.032;2024-02-26T09:57:37;99371.97;;;4.76;100.00
60345;BME280;46188;52.324;8.032;2024-02-26T10:00:04;99370.28;;;4.78;100.00
60345;BME280;46188;52.324;8.032;2024-02-26T10:02:33;99374.66;;;4.81;100.00
60345;BME280;46188;52.324;8.032;2024-02-26T10:04:59;99374.69;;;4.83;100.00
60345;BME280;46188;52.324;8.032;2024-02-26T10:07:30;99372.06;;;4.83;100.00
60345;BME280;46188;52.324;8.032;2024-02-26T10:09:55;99382.50;;;4.83;100.00
60345;BME280;46188;52.324;8.032;2024-02-26T10:12:21;99384.31;;;4.85;100.00
60345;BME280;46188;52.324;8.032;2024-02-26T10:14:47;99385.22;;;4.87;100.00
60345;BME280;46188;52.324;8.032;2024-02-26T10:17:12;99386.09;;;4.89;100.00
60345;BME280;46188;52.324;8.032;2024-02-26T10:19:37;99393.13;;;4.92;100.00
60345;BME280;46188;52.324;8.032;2024-02-26T10:22:03;99379.19;;;4.93;100.00
60345;BME280;46188;52.324;8.032;2024-02-26T10:24:30;99387.97;;;4.95;100.00
60345;BME280;46188;52.324;8.032;2024-02-26T10:26:56;99386.25;;;4.97;100.00
60345;BME280;46188;52.324;8.032;2024-02-26T10:29:23;99394.09;;;4.98;100.00
60345;BME280;46188;52.324;8.032;2024-02-26T10:31:48;99398.47;;;5.01;100.00
60345;BME280;46188;52.324;8.032;2024-02-26T10:34:17;99391.56;;;5.03;100.00
60345;BME280;46188;52.324;8.032;2024-02-26T10:36:43;99408.13;;;5.05;100.00
60345;BME280;46188;52.324;8.032;2024-02-26T10:39:09;99402.94;;;5.07;100.00
60345;BME280;46188;52.324;8.032;2024-02-26T10:41:36;99407.31;;;5.09;100.00
60345;BME280;46188;52.324;8.032;2024-02-26T10:44:02;99412.59;;;5.12;100.00
60345;BME280;46188;52.324;8.032;2024-02-26T10:46:27;99414.41;;;5.16;100.00
60345;BME280;46188;52.324;8.032;2024-02-26T10:48:53;99413.59;;;5.21;100.00
60345;BME280;46188;52.324;8.032;2024-02-26T10:51:30;99414.50;;;5.24;100.00
60345;BME280;46188;52.324;8.032;2024-02-26T10:53:59;99418.94;;;5.28;100.00
60345;BME280;46188;52.324;8.032;2024-02-26T10:56:28;99426.88;;;5.33;100.00
60345;BME280;46188;52.324;8.032;2024-02-26T10:58:55;99434.75;;;5.38;100.00
60345;BME280;46188;52.324;8.032;2024-02-26T11:01:20;99428.72;;;5.40;100.00
60345;BME280;46188;52.324;8.032;2024-02-26T11:03:51;99440.94;;;5.44;100.00
60345;BME280;46188;52.324;8.032;2024-02-26T11:06:18;99446.22;;;5.47;100.00
60345;BME280;46188;52.324;8.032;2024-02-26T11:08:44;99443.63;;;5.49;100.00
60345;BME280;46188;52.324;8.032;2024-02-26T11:11:12;99441.91;;;5.51;100.00
60345;BME280;46188;52.324;8.032;2024-02-26T11:13:40;99444.59;;;5.54;100.00
60345;BME280;46188;52.324;8.032;2024-02-26T11:16:10;99444.59;;;5.55;100.00
60345;BME280;46188;52.324;8.032;2024-02-26T11:18:37;99442.03;;;5.59;100.00
60345;BME280;46188;52.324;8.032;2024-02-26T11:21:05;99439.44;;;5.60;100.00
60345;BME280;46188;52.324;8.032;2024-02-26T11:23:33;99439.47;;;5.62;100.00
60345;BME280;46188;52.324;8.032;2024-02-26T11:26:02;99439.50;;;5.63;100.00
60345;BME280;46188;52.324;8.032;2024-02-26T11:28:29;99439.53;;;5.65;100.00
60345;BME280;46188;52.324;8.032;2024-02-26T11:30:57;99439.56;;;5.68;100.00
60345;BME280;46188;52.324;8.032;2024-02-26T11:33:24;99438.72;;;5.70;100.00
60345;BME280;46188;52.324;8.032;2024-02-26T11:35:50;99437.91;;;5.73;100.00
60345;BME280;46188;52.324;8.032;2024-02-26T11:38:24;99437.94;;;5.76;100.00
60345;BME280;46188;52.324;8.032;2024-02-26T11:40:51;99442.28;;;5.77;100.00
60345;BME280;46188;52.324;8.032;2024-02-26T11:43:16;99433.59;;;5.78;100.00
60345;BME280;46188;52.324;8.032;2024-02-26T11:50:39;99432.00;;;5.89;100.00
60345;BME280;46188;52.324;8.032;2024-02-26T11:53:24;99425.97;;;5.95;100.00
60345;BME280;46188;52.324;8.032;2024-02-26T11:56:13;99431.31;;;6.00;100.00
60345;BME280;46188;52.324;8.032;2024-02-26T11:58:39;99433.97;;;6.03;100.00
60345;BME280;46188;52.324;8.032;2024-02-26T12:01:05;99430.50;;;6.07;100.00
60345;BME280;46188;52.324;8.032;2024-02-26T12:03:31;99444.50;;;6.10;100.00
60345;BME280;46188;52.324;8.032;2024-02-26T12:05:56;99440.19;;;6.13;100.00
60345;BME280;46188;52.324;8.032;2024-02-26T12:08:21;99457.63;;;6.14;100.00
60345;BME280;46188;52.324;8.032;2024-02-26T12:10:48;99459.41;;;6.15;100.00
60345;BME280;46188;52.324;8.032;2024-02-26T12:13:15;99454.19;;;6.16;100.00
60345;BME280;46188;52.324;8.032;2024-02-26T12:15:57;99455.09;;;6.20;100.00
60345;BME280;46188;52.324;8.032;2024-02-26T12:18:23;99456.00;;;6.23;100.00
60345;BME280;46188;52.324;8.032;2024-02-26T12:21:02;99469.13;;;6.26;100.00
60345;BME280;46188;52.324;8.032;2024-02-26T12:23:28;99464.75;;;6.27;100.00
60345;BME280;46188;52.324;8.032;2024-02-26T12:25:54;99471.78;;;6.30;100.00
60345;BME280;46188;52.324;8.032;2024-02-26T12:28:23;99467.44;;;6.32;100.00
60345;BME280;46188;52.324;8.032;2024-02-26T12:30:48;99470.97;;;6.35;100.00
60345;BME280;46188;52.324;8.032;2024-02-26T12:33:13;99479.78;;;6.39;100.00
60345;BME280;46188;52.324;8.032;2024-02-26T12:35:39;99464.94;;;6.41;100.00
60345;BME280;46188;52.324;8.032;2024-02-26T12:38:04;99481.53;;;6.43;100.00
60345;BME280;46188;52.324;8.032;2024-02-26T12:40:30;99479.78;;;6.43;100.00
60345;BME280;46188;52.324;8.032;2024-02-26T12:42:56;99482.44;;;6.45;100.00
60345;BME280;46188;52.324;8.032;2024-02-26T12:45:21;99478.09;;;6.45;100.00
60345;BME280;46188;52.324;8.032;2024-02-26T12:47:47;99479.84;;;6.46;100.00
60345;BME280;46188;52.324;8.032;2024-02-26T12:50:13;99479.84;;;6.46;100.00
60345;BME280;46188;52.324;8.032;2024-02-26T12:52:46;99492.06;;;6.47;100.00
60345;BME280;46188;52.324;8.032;2024-02-26T12:55:16;99498.19;;;6.48;100.00
60345;BME280;46188;52.324;8.032;2024-02-26T12:57:44;99492.06;;;6.47;100.00